Nearby METAR Reports

 

KCMA - Camarillo, California, USA
Distance from station: WSW 4mi, 7km
Updated: Sat, 17-Apr-2021 4:55am PDT
Clear
Clear
 Wind from ENE
Wind: ENE 5 mph , 7 km/h
Temperature: 50°F , 10°C
Wind Chill: 48°F , 9°C
Dew Point: 45°F , 7°C
Humidity: 82%
Barometer: 29.95 inHg , 1014.2 hPa
Clouds: Clear
Visibility: 8 miles , 13 km
2021/04/17 11:55 KCMA 171155Z AUTO 07004KT 8SM CLR 10/07 A2995 RMK AO2 SLP150 T01000067 10128 20089 50001
KNTD - Point Mugu Nas, California, USA
Distance from station: SSW 9mi, 15km
Updated: Sat, 17-Apr-2021 4:52am PDT
Clear
Clear
 Wind from NE
Wind: NE 5 mph , 7 km/h
Temperature: 46°F , 8°C
Wind Chill: 44°F , 7°C
Dew Point: 45°F , 7°C
Humidity: 93%
Barometer: 29.96 inHg , 1014.6 hPa
Clouds: Clear
Visibility: 7 miles , 11 km
2021/04/17 11:52 KNTD 171152Z AUTO 04004KT 7SM CLR 08/07 A2996 RMK AO2 SLP147 T00830067 10117 20078 50001 VISNO N $
 
KOXR - Oxnard, California, USA
Distance from station: WSW 10mi, 16km
Updated: Sat, 17-Apr-2021 4:51am PDT
Few Clouds
Few Clouds
 Wind from ENE
Wind: ENE 3 mph , 6 km/h
Temperature: 48°F , 9°C
Dew Point: 45°F , 7°C
Humidity: 87%
Barometer: 29.95 inHg , 1014.2 hPa
Clouds: Few Clouds
Visibility: 9 miles , 14 km
Cloud details: Few Clouds 1600 ft
2021/04/17 11:51 KOXR 171151Z AUTO 06003KT 9SM FEW016 09/07 A2995 RMK AO2 SLP141 T00940072 10128 20083 50001
KVNY - Van Nuys, California, USA
Distance from station: E 31mi, 50km
Updated: Sat, 17-Apr-2021 4:51am PDT
Clear
Clear
 Wind from N
Wind: N 3 mph , 6 km/h
Temperature: 52°F , 11°C
Dew Point: 46°F , 8°C
Humidity: 82%
Barometer: 29.95 inHg , 1014.2 hPa
Clouds: Clear
Visibility: 10 miles , 16 km
2021/04/17 11:51 KVNY 171151Z AUTO 01003KT 10SM CLR 11/08 A2995 RMK AO2 SLP134 T01110083 10144 20111 56002
 
KWHP - La / Whiteman, California, USA
Distance from station: E 35mi, 56km
Updated: Fri, 16-Apr-2021 7:50pm PDT
NOT Current
Clear
Clear
 Wind from ESE
Wind: ESE 5 mph , 7 km/h
Temperature: 59°F , 15°C
Dew Point: 48°F , 9°C
Humidity: 68%
Barometer: 29.95 inHg , 1014.2 hPa
Clouds: Clear
Visibility: 10 miles , 16 km
2021/04/17 02:50 KWHP 170250Z 11004KT 10SM SKC 15/09 A2995
KSMO - Santa Monica, California, USA
Distance from station: ESE 36mi, 58km
Updated: Sat, 17-Apr-2021 5:01am PDT
Partly cloudy
Partly cloudy
 Wind from calm
Wind: Calm
Temperature: 52°F , 11°C
Dew Point: 46°F , 8°C
Humidity: 82%
Barometer: 29.96 inHg , 1014.6 hPa
Clouds: Partly cloudy
Visibility: 10 miles , 16 km
Cloud details: Partly cloudy 2200 ft
2021/04/17 12:01 KSMO 171201Z AUTO 00000KT 10SM SCT022 11/08 A2996 RMK AO2 T01110083
 
KBUR - Burbank, California, USA
Distance from station: E 38mi, 61km
Updated: Sat, 17-Apr-2021 4:53am PDT
Clear
Clear
 Wind from NNW
Wind: NNW 3 mph , 6 km/h
Temperature: 52°F , 11°C
Dew Point: 45°F , 7°C
Humidity: 77%
Barometer: 29.95 inHg , 1014.2 hPa
Clouds: Clear
Visibility: 10 miles , 16 km
2021/04/17 11:53 KBUR 171153Z AUTO 33003KT 10SM CLR 11/07 A2995 RMK AO2 SLP132 T01060067 10139 20106 55001 $
KSDB - Sandberg, California, USA
Distance from station: NNE 40mi, 64km
Updated: Sat, 17-Apr-2021 4:53am PDT
Clear
Clear
 Wind from NNW
Wind: NNW 16 mph , 26 km/h, Gust: 22 mph , 35 km/h
Temperature: 52°F , 11°C
Dew Point: 30°F , -1°C
Humidity: 44%
Barometer: 30.02 inHg , 1016.6 hPa
Clouds: Clear
Visibility: 10 miles , 16 km
2021/04/17 11:53 KSDB 171153Z AUTO 33014G19KT 10SM CLR 11/M01 A3002 RMK AO2 SLP131 T01061006 10122 20100 55002
 
KLAX - Los Angeles, California, USA
Distance from station: ESE 42mi, 68km
Updated: Sat, 17-Apr-2021 4:53am PDT
Partly cloudy
Partly cloudy
 Wind from NNW
Wind: NNW 3 mph , 6 km/h
Temperature: 55°F , 13°C
Dew Point: 48°F , 9°C
Humidity: 77%
Barometer: 29.96 inHg , 1014.6 hPa
Clouds: Partly cloudy
Visibility: 10 miles , 16 km
Cloud details: Few Clouds 1200 ft
Partly cloudy 2000 ft
2021/04/17 11:53 KLAX 171153Z 34003KT 10SM FEW012 SCT020 13/09 A2996 RMK AO2 SLP143 T01280094 10139 20122 56003
KCQT - Los Angeles, California, USA
Distance from station: ESE 45mi, 73km
Updated: Sat, 17-Apr-2021 4:52am PDT
Mostly cloudy
Mostly cloudy
 Wind from calm
Wind: Calm
Temperature: 55°F , 13°C
Dew Point: 48°F , 9°C
Humidity: 77%
Barometer: 29.95 inHg , 1014.2 hPa
Clouds: Mostly cloudy
Visibility: 10 miles , 16 km
Cloud details: Mostly cloudy 2100 ft
2021/04/17 11:52 KCQT 171152Z AUTO 00000KT 10SM BKN021 13/09 A2995 RMK AO2 SLP141 T01280089 10144 20128 51001
 
KHHR - Hawthorne, California, USA
Distance from station: ESE 45mi, 73km
Updated: Sat, 17-Apr-2021 4:53am PDT
Mostly cloudy
Mostly cloudy
 Wind from calm
Wind: Calm
Temperature: 54°F , 12°C
Dew Point: 48°F , 9°C
Humidity: 82%
Barometer: 29.96 inHg , 1014.6 hPa
Clouds: Mostly cloudy
Visibility: 10 miles , 16 km
Cloud details: Mostly cloudy 2000 ft
2021/04/17 11:53 KHHR 171153Z AUTO 00000KT 10SM BKN020 12/09 A2996 RMK AO2 SLP144 T01220094 10144 20122 56003
KSBA - Santa Barbara, California, USA
Distance from station: WNW 49mi, 79km
Updated: Sat, 17-Apr-2021 4:53am PDT
Clear
Clear
 Wind from N
Wind: N 3 mph , 6 km/h
Temperature: 48°F , 9°C
Dew Point: 45°F , 7°C
Humidity: 87%
Barometer: 29.94 inHg , 1013.9 hPa
Clouds: Clear
Visibility: 8 miles , 13 km
2021/04/17 11:53 KSBA 171153Z AUTO 36003KT 8SM CLR 09/07 A2994 RMK AO2 SLP139 T00890072 10133 20089 50003